| time (UTC) | temp F | wind direction | speed knots | gust knots | rain 1hr in | rain 24hr in | rain mn in | humidity % | barometer mb |
| 20260906173527 | 81 | 217 | 2.6 | 4.3 | 0.00 | 0.00 | 0.00 | 86 | 1022.5 |
| 20260906172530 | 82 | 179 | 2.6 | 4.3 | 0.00 | 0.00 | 0.00 | 86 | 1022.5 |
| 20260906171527 | 81 | 178 | 1.7 | 3.5 | 0.00 | 0.00 | 0.00 | 88 | 1022.4 |
| 20260906170518 | 81 | 184 | 1.7 | 5.2 | 0.00 | 0.00 | 0.00 | 87 | 1022.7 |
| 20260906165521 | 81 | 223 | 2.6 | 4.3 | 0.00 | 0.00 | 0.00 | 86 | 1022.7 |
| 20260906164518 | 81 | 192 | 1.7 | 4.3 | 0.00 | 0.00 | 0.00 | 86 | 1022.5 |
| 20260906163527 | 81 | 193 | 3.5 | 5.2 | 0.00 | 0.00 | 0.00 | 85 | 1022.4 |
| 20260906162529 | 83 | 55 | 1.7 | 3.5 | 0.00 | 0.00 | 0.00 | 86 | 1022.4 |
| 20260906161532 | 81 | 208 | 2.6 | 7.0 | 0.00 | 0.00 | 0.00 | 89 | 1022.6 |
| 20260906160517 | 81 | 218 | 1.7 | 4.3 | 0.00 | 0.00 | 0.00 | 91 | 1022.7 |
| 20260906155520 | 80 | 168 | 1.7 | 3.5 | 0.00 | 0.00 | 0.00 | 92 | 1022.5 |
| 20260906154522 | 79 | 216 | 1.7 | 2.6 | 0.00 | 0.00 | 0.00 | 95 | 1022.6 |
| 20260906153526 | 79 | 55 | 1.7 | 3.5 | 0.00 | 0.00 | 0.00 | 95 | 1022.6 |
| 20260906152528 | 78 | 143 | 0.9 | 2.6 | 0.00 | 0.00 | 0.00 | 99 | 1022.9 |
| 20260906151531 | 77 | 192 | 0.9 | 2.6 | 0.00 | 0.00 | 0.00 | 99 | 1022.7 |
| 20260906150516 | 76 | 106 | 0.9 | 2.6 | 0.00 | 0.00 | 0.00 | 99 | 1022.7 |
| 20260906145519 | 74 | 184 | 0.9 | 1.7 | 0.00 | 0.00 | 0.00 | 99 | 1022.5 |
| 20260906144522 | 74 | 219 | 2.6 | 5.2 | 0.00 | 0.00 | 0.00 | 99 | 1022.4 |
| 20260906143525 | 73 | 179 | 2.6 | 5.2 | 0.00 | 0.00 | 0.00 | 99 | 1022.4 |
| 20260906142528 | 72 | 185 | 0.9 | 2.6 | 0.00 | 0.00 | 0.00 | 99 | 1022.4 |
| 20260906141531 | 72 | 194 | 0.9 | 2.6 | 0.00 | 0.00 | 0.00 | 99 | 1022.4 |
| 20260906140516 | 71 | 237 | 0.9 | 2.6 | 0.00 | 0.00 | 0.00 | 99 | 1022.5 |
| 20260906135519 | 71 | 200 | 1.7 | 4.3 | 0.00 | 0.00 | 0.00 | 99 | 1022.5 |
| 20260906134521 | 70 | 160 | 0.9 | 2.6 | 0.00 | 0.00 | 0.00 | 99 | 1022.3 |
| 20260906133519 | 70 | 0.0 | 0.0 | 0.00 | 0.00 | 0.00 | 99 | 1022.4 | |
| 20260906132516 | 69 | 135 | 0.0 | 1.7 | 0.00 | 0.00 | 0.00 | 99 | 1022.5 |
| 20260906131530 | 69 | 248 | 0.0 | 1.7 | 0.00 | 0.00 | 0.00 | 99 | 1022.5 |
| 20260906130515 | 68 | 104 | 0.9 | 2.6 | 0.00 | 0.00 | 0.00 | 99 | 1022.3 |
| 20260906125518 | 68 | 79 | 0.9 | 1.7 | 0.00 | 0.00 | 0.00 | 99 | 1022.1 |
| 20260906124521 | 68 | 248 | 0.0 | 0.9 | 0.00 | 0.00 | 0.00 | 99 | 1022.0 |
| 20260906123524 | 68 | 164 | 0.9 | 1.7 | 0.00 | 0.00 | 0.00 | 99 | 1022.0 |
| 20260906122527 | 68 | 174 | 0.9 | 2.6 | 0.00 | 0.00 | 0.00 | 99 | 1022.1 |
| 20260906121530 | 68 | 60 | 0.0 | 1.7 | 0.00 | 0.00 | 0.00 | 99 | 1022.1 |
| 20260906120533 | 67 | 204 | 0.9 | 1.7 | 0.00 | 0.00 | 0.00 | 99 | 1021.9 |
| 20260906115517 | 67 | 104 | 0.9 | 2.6 | 0.00 | 0.00 | 0.00 | 99 | 1021.7 |
| 20260906114520 | 67 | 34 | 0.0 | 0.9 | 0.00 | 0.00 | 0.00 | 99 | 1021.7 |
| 20260906113523 | 67 | 68 | 0.0 | 0.9 | 0.00 | 0.00 | 0.00 | 99 | 1021.7 |
| 20260906112526 | 67 | 0 | 0.0 | 1.7 | 0.00 | 0.00 | 0.00 | 99 | 1021.5 |
| 20260906111529 | 67 | 125 | 0.9 | 1.7 | 0.00 | 0.00 | 0.00 | 99 | 1021.5 |
| 20260906110532 | 67 | 0.0 | 0.0 | 0.00 | 0.00 | 0.00 | 99 | 1021.2 | |
| 20260906105517 | 67 | 97 | 0.9 | 1.7 | 0.00 | 0.00 | 0.00 | 99 | 1021.0 |
| 20260906104520 | 67 | 0.0 | 0.9 | 0.00 | 0.00 | 0.00 | 99 | 1021.0 | |
| 20260906103523 | 67 | 158 | 0.0 | 0.9 | 0.00 | 0.00 | 0.00 | 99 | 1021.0 |
| 20260906102519 | 67 | 0.0 | 0.0 | 0.00 | 0.00 | 0.00 | 99 | 1021.0 | |
| 20260906101516 | 67 | 180 | 0.0 | 0.9 | 0.00 | 0.00 | 0.00 | 99 | 1020.6 |
| 20260906100531 | 66 | 0.0 | 0.0 | 0.00 | 0.00 | 0.00 | 99 | 1020.7 | |
| 20260906095516 | 66 | 0.0 | 1.7 | 0.00 | 0.00 | 0.00 | 99 | 1020.6 | |
| 20260906094519 | 66 | 0.0 | 0.0 | 0.00 | 0.00 | 0.00 | 99 | 1020.5 | |
| 20260906093522 | 66 | 0.0 | 0.0 | 0.00 | 0.00 | 0.00 | 99 | 1020.4 | |
| 20260906092525 | 66 | 90 | 0.0 | 0.9 | 0.00 | 0.00 | 0.00 | 99 | 1020.3 |
| 20260906091528 | 67 | 0.0 | 0.9 | 0.00 | 0.00 | 0.00 | 99 | 1020.3 | |
| 20260906090530 | 67 | 113 | 0.0 | 0.9 | 0.00 | 0.00 | 0.00 | 99 | 1020.3 |
| 20260906085515 | 67 | 0.0 | 0.0 | 0.00 | 0.00 | 0.00 | 99 | 1020.3 | |
| 20260906084518 | 67 | 0.0 | 0.0 | 0.00 | 0.00 | 0.00 | 99 | 1020.4 | |
| 20260906083521 | 68 | 0.0 | 0.0 | 0.00 | 0.00 | 0.00 | 99 | 1020.5 | |
| 20260906082523 | 68 | 23 | 0.0 | 0.9 | 0.00 | 0.00 | 0.00 | 99 | 1020.6 |
| 20260906081526 | 68 | 0.0 | 0.9 | 0.00 | 0.00 | 0.00 | 99 | 1020.5 | |
| 20260906080529 | 68 | 68 | 0.0 | 1.7 | 0.00 | 0.00 | 0.00 | 99 | 1020.5 |
| 20260906075532 | 68 | 0.0 | 0.9 | 0.00 | 0.00 | 0.00 | 99 | 1020.5 | |
| 20260906074518 | 68 | 0.0 | 0.0 | 0.00 | 0.00 | 0.00 | 99 | 1020.6 | |
| 20260906073520 | 68 | 0.0 | 0.0 | 0.00 | 0.00 | 0.00 | 99 | 1020.7 | |
| 20260906072523 | 69 | 0.0 | 0.9 | 0.00 | 0.00 | 0.00 | 99 | 1020.7 | |
| 20260906071520 | 68 | 0.0 | 0.9 | 0.00 | 0.00 | 0.00 | 99 | 1020.5 | |
| 20260906070517 | 68 | 0.0 | 0.0 | 0.00 | 0.00 | 0.00 | 99 | 1020.7 | |
| 20260906065533 | 68 | 0.0 | 0.0 | 0.00 | 0.00 | 0.00 | 99 | 1020.6 | |
| 20260906064517 | 69 | 0.0 | 0.0 | 0.00 | 0.00 | 0.00 | 99 | 1020.6 | |
| 20260906063520 | 69 | 0.0 | 0.0 | 0.00 | 0.00 | 0.00 | 99 | 1020.7 | |
| 20260906062523 | 69 | 0.0 | 1.7 | 0.00 | 0.00 | 0.00 | 99 | 1020.8 | |
| 20260906061526 | 69 | 0.0 | 0.0 | 0.00 | 0.00 | 0.00 | 99 | 1021.0 | |
| 20260906060529 | 69 | 0.0 | 0.0 | 0.00 | 0.00 | 0.00 | 99 | 1021.0 | |
| 20260906055532 | 70 | 90 | 0.0 | 2.6 | 0.00 | 0.00 | 0.00 | 99 | 1021.0 |
| 20260906054517 | 70 | 170 | 0.9 | 2.6 | 0.00 | 0.00 | 0.00 | 99 | 1021.0 |
| 20260906053519 | 70 | 0.0 | 0.0 | 0.00 | 0.00 | 0.00 | 99 | 1021.0 | |
| 20260906052522 | 70 | 129 | 0.9 | 1.7 | 0.00 | 0.00 | 0.00 | 99 | 1021.0 |
| 20260906051526 | 70 | 179 | 0.9 | 0.9 | 0.00 | 0.00 | 0.00 | 99 | 1021.0 |
| 20260906050528 | 70 | 196 | 0.9 | 2.6 | 0.00 | 0.00 | 0.00 | 99 | 1020.7 |
| 20260906045531 | 70 | 203 | 0.0 | 1.7 | 0.00 | 0.00 | 0.00 | 99 | 1020.8 |
| 20260906044516 | 70 | 0.0 | 0.0 | 0.00 | 0.00 | 0.00 | 99 | 1020.7 | |
| 20260906043518 | 70 | 0.0 | 0.0 | 0.00 | 0.00 | 0.00 | 99 | 1020.7 | |
| 20260906042521 | 70 | 0.0 | 0.0 | 0.00 | 0.00 | 0.00 | 99 | 1020.7 | |
| 20260906041524 | 70 | 0.0 | 0.0 | 0.00 | 0.00 | 0.00 | 99 | 1021.0 | |
| 20260906040521 | 71 | 0.0 | 0.0 | 0.00 | 0.00 | 0.00 | 99 | 1020.8 | |
| 20260906035517 | 71 | 0.0 | 0.0 | 0.00 | 0.00 | 0.00 | 99 | 1020.7 | |
| 20260906034532 | 71 | 0.0 | 0.0 | 0.00 | 0.00 | 0.00 | 99 | 1020.8 | |
| 20260906033516 | 71 | 0.0 | 0.0 | 0.00 | 0.00 | 0.00 | 99 | 1020.8 | |
| 20260906032519 | 71 | 0.0 | 0.0 | 0.00 | 0.00 | 0.00 | 99 | 1020.6 | |
| 20260906031522 | 71 | 0.0 | 0.0 | 0.00 | 0.00 | 0.00 | 99 | 1020.6 | |
| 20260906030525 | 71 | 0.0 | 0.0 | 0.00 | 0.00 | 0.00 | 99 | 1020.6 | |
| 20260906025528 | 71 | 0.0 | 0.0 | 0.00 | 0.00 | 0.00 | 99 | 1020.1 | |
| 20260906024531 | 71 | 0.0 | 0.0 | 0.00 | 0.00 | 0.00 | 99 | 1020.1 | |
| 20260906023516 | 71 | 0.0 | 0.0 | 0.00 | 0.00 | 0.00 | 99 | 1020.1 | |
| 20260906022519 | 71 | 0.0 | 0.0 | 0.00 | 0.00 | 0.00 | 99 | 1020.0 | |
| 20260906021522 | 72 | 0.0 | 0.0 | 0.00 | 0.00 | 0.00 | 99 | 1019.8 | |
| 20260906020524 | 72 | 0.0 | 0.0 | 0.00 | 0.00 | 0.00 | 99 | 1019.6 | |
| 20260906015527 | 72 | 0.0 | 0.0 | 0.00 | 0.00 | 0.00 | 99 | 1019.4 | |
| 20260906014530 | 72 | 0.0 | 0.0 | 0.00 | 0.00 | 0.00 | 99 | 1019.3 | |
| 20260906013533 | 72 | 0.0 | 0.0 | 0.00 | 0.00 | 0.00 | 99 | 1019.1 | |
| 20260906012517 | 73 | 0.0 | 0.0 | 0.00 | 0.00 | 0.00 | 99 | 1019.0 | |
| 20260906011520 | 73 | 0.0 | 0.0 | 0.00 | 0.00 | 0.00 | 99 | 1019.0 | |
| 20260906010523 | 74 | 0.0 | 0.0 | 0.00 | 0.00 | 0.00 | 99 | 1018.9 | |
| 20260906005519 | 74 | 0.0 | 0.0 | 0.00 | 0.00 | 0.00 | 99 | 1018.6 | |
| 20260906004516 | 75 | 0.0 | 0.0 | 0.00 | 0.00 | 0.00 | 99 | 1018.8 | |
| 20260906003531 | 75 | 0.0 | 0.0 | 0.00 | 0.00 | 0.00 | 99 | 1018.7 | |
| 20260906002516 | 75 | 108 | 0.0 | 1.7 | 0.00 | 0.00 | 0.00 | 99 | 1018.6 |
| 20260906001519 | 76 | 0.0 | 0.0 | 0.00 | 0.00 | 0.00 | 99 | 1018.6 | |
| 20260906000522 | 77 | 0.0 | 0.0 | 0.00 | 0.00 | 0.00 | 99 | 1018.6 | |
| 20260905235525 | 78 | 0.0 | 1.7 | 0.00 | 0.00 | 0.00 | 99 | 1018.5 | |
| 20260905234528 | 78 | 127 | 0.9 | 1.7 | 0.00 | 0.00 | 0.00 | 99 | 1018.5 |
| 20260905233531 | 78 | 0.0 | 0.0 | 0.00 | 0.00 | 0.00 | 99 | 1018.5 | |
| 20260905232515 | 79 | 0.0 | 0.0 | 0.00 | 0.00 | 0.00 | 99 | 1018.4 | |
| 20260905231519 | 79 | 0.0 | 0.0 | 0.00 | 0.00 | 0.00 | 99 | 1018.4 | |
| 20260905230522 | 79 | 223 | 0.9 | 1.7 | 0.00 | 0.00 | 0.00 | 99 | 1018.5 |
| 20260905225524 | 79 | 158 | 0.0 | 1.7 | 0.00 | 0.00 | 0.00 | 99 | 1018.1 |
| 20260905224527 | 79 | 163 | 0.9 | 2.6 | 0.00 | 0.00 | 0.00 | 99 | 1018.0 |
| 20260905223530 | 79 | 258 | 0.9 | 2.6 | 0.00 | 0.00 | 0.00 | 99 | 1017.9 |
| 20260905222533 | 79 | 352 | 1.7 | 4.3 | 0.00 | 0.00 | 0.00 | 99 | 1017.7 |
| 20260905221517 | 79 | 299 | 1.7 | 3.5 | 0.00 | 0.00 | 0.00 | 98 | 1017.4 |
| 20260905220520 | 80 | 239 | 1.7 | 2.6 | 0.00 | 0.00 | 0.00 | 98 | 1017.9 |
| 20260905215523 | 80 | 118 | 1.7 | 3.5 | 0.00 | 0.00 | 0.00 | 97 | 1018.1 |
| 20260905214520 | 81 | 181 | 0.9 | 2.6 | 0.00 | 0.00 | 0.00 | 96 | 1018.1 |
| 20260905213517 | 81 | 222 | 1.7 | 3.5 | 0.00 | 0.00 | 0.00 | 95 | 1018.3 |
| 20260905212531 | 82 | 167 | 2.6 | 3.5 | 0.00 | 0.00 | 0.00 | 95 | 1018.6 |
| 20260905211516 | 82 | 155 | 0.9 | 1.7 | 0.00 | 0.00 | 0.00 | 95 | 1019.0 |
| 20260905210519 | 82 | 180 | 1.7 | 3.5 | 0.00 | 0.00 | 0.00 | 93 | 1018.6 |
| 20260905205522 | 83 | 203 | 1.7 | 3.5 | 0.00 | 0.00 | 0.00 | 93 | 1019.0 |
| 20260905204524 | 84 | 189 | 0.9 | 3.5 | 0.00 | 0.00 | 0.00 | 93 | 1019.0 |
| 20260905203528 | 84 | 222 | 0.9 | 3.5 | 0.00 | 0.00 | 0.00 | 90 | 1019.0 |
| 20260905202529 | 84 | 138 | 0.9 | 2.6 | 0.00 | 0.00 | 0.00 | 91 | 1019.0 |
| 20260905201533 | 85 | 312 | 0.9 | 1.7 | 0.00 | 0.00 | 0.00 | 90 | 1019.3 |
| 20260905200517 | 85 | 201 | 1.7 | 3.5 | 0.00 | 0.00 | 0.00 | 90 | 1019.5 |
| 20260905195520 | 84 | 186 | 1.7 | 4.3 | 0.00 | 0.00 | 0.00 | 92 | 1019.6 |
| 20260905194523 | 83 | 181 | 0.9 | 2.6 | 0.00 | 0.00 | 0.00 | 94 | 1019.6 |
| 20260905193526 | 83 | 170 | 0.9 | 2.6 | 0.00 | 0.00 | 0.00 | 94 | 1019.6 |
| 20260905192529 | 84 | 87 | 0.9 | 2.6 | 0.00 | 0.00 | 0.00 | 93 | 1019.5 |
| 20260905191531 | 83 | 196 | 0.9 | 2.6 | 0.00 | 0.00 | 0.00 | 94 | 1019.6 |
| 20260905190516 | 83 | 195 | 1.7 | 3.5 | 0.00 | 0.00 | 0.00 | 94 | 1019.9 |
| 20260905185519 | 83 | 281 | 0.9 | 3.5 | 0.00 | 0.00 | 0.00 | 95 | 1020.1 |
| 20260905184522 | 82 | 300 | 0.9 | 2.6 | 0.00 | 0.00 | 0.00 | 98 | 1020.0 |
| 20260905183519 | 82 | 168 | 1.7 | 2.6 | 0.00 | 0.00 | 0.00 | 98 | 1020.1 |
| 20260905182515 | 81 | 0.0 | 0.0 | 0.00 | 0.00 | 0.00 | 99 | 1020.2 | |
| 20260905181530 | 81 | 51 | 0.9 | 1.7 | 0.00 | 0.00 | 0.00 | 99 | 1020.5 |
| 20260905180515 | 80 | 0.0 | 0.0 | 0.00 | 0.00 | 0.00 | 99 | 1020.5 | |
| 20260905175518 | 79 | 270 | 0.0 | 0.9 | 0.00 | 0.00 | 0.00 | 99 | 1020.5 |
| 20260905174521 | 78 | 74 | 0.9 | 1.7 | 0.00 | 0.00 | 0.00 | 99 | 1020.6 |